Time;durP1;ratioP1;P1;durP2;ratioP2;P2;SDS_P1;SDS_P2;PMS_P1;PMS_P2;Temp;Humidity;BMP_temperature;BMP_pressure;BME280_temperature;BME280_humidity;BME280_pressure;Samples;Min_cycle;Max_cycle;Signal;HPM_P1;HPM_P2
2022/12/30 00:01:19;;;;;;;19.15;4.53;;;;;;;2.86;68.47;102640.41;1897233;73;21811;-48
2022/12/30 00:03:48;;;;;;;11.68;4.40;;;;;;;2.82;68.62;102647.70;1923666;73;21133;-56
2022/12/30 00:06:20;;;;;;;10.95;3.70;;;;;;;2.79;68.64;102638.94;1911393;75;21153;-54
2022/12/30 00:08:51;;;;;;;10.88;3.25;;;;;;;2.69;68.79;102623.11;1911262;75;21589;-57
2022/12/30 00:11:23;;;;;;;9.68;3.50;;;;;;;2.69;68.80;102634.81;1903548;73;21122;-56
2022/12/30 00:34:12;;;;;;;8.10;3.08;;;;;;;2.85;68.72;102618.26;1923906;74;21028;-51
2022/12/30 00:36:41;;;;;;;10.90;3.52;;;;;;;2.87;68.68;102604.86;1924735;74;21079;-53
2022/12/30 00:39:10;;;;;;;10.88;3.85;;;;;;;2.89;68.74;102607.06;1927777;74;21044;-53
2022/12/30 00:44:25;;;;;;;10.00;4.65;;;;;;;2.97;68.79;102605.53;1927709;74;21107;-51
2022/12/30 00:46:54;;;;;;;11.30;4.35;;;;;;;3.02;68.69;102607.79;1927860;74;21106;-50
2022/12/30 00:57:42;;;;;;;8.55;4.42;;;;;;;2.94;68.94;102599.37;1890007;76;21122;-51
2022/12/30 01:00:13;;;;;;;13.18;4.45;;;;;;;2.95;68.89;102585.11;1890435;76;21036;-49
2022/12/30 01:02:41;;;;;;;10.88;5.20;;;;;;;2.94;68.92;102582.47;1926953;74;21048;-50
2022/12/30 01:05:10;;;;;;;11.18;4.83;;;;;;;2.95;69.00;102594.22;1888763;74;21074;-52
2022/12/30 01:07:39;;;;;;;10.45;4.72;;;;;;;2.96;69.07;102588.58;1886839;74;21525;-52
2022/12/30 01:10:09;;;;;;;9.38;4.45;;;;;;;2.98;69.13;102573.44;1890755;74;21060;-51
2022/12/30 01:12:37;;;;;;;13.90;5.75;;;;;;;2.99;69.10;102570.01;1890412;76;21040;-52
2022/12/30 01:15:08;;;;;;;13.65;4.20;;;;;;;2.99;69.32;102578.22;1896586;74;21191;-51
2022/12/30 01:17:37;;;;;;;11.10;4.30;;;;;;;3.00;69.49;102566.98;1919785;74;21094;-53
2022/12/30 01:20:07;;;;;;;11.70;3.92;;;;;;;3.00;69.44;102562.64;1909094;74;21198;-53
2022/12/30 01:22:35;;;;;;;14.53;5.55;;;;;;;2.98;69.36;102569.54;1909273;74;21042;-54
2022/12/30 01:25:04;;;;;;;13.60;4.28;;;;;;;2.94;69.43;102566.42;1892525;74;21024;-53
2022/12/30 01:27:34;;;;;;;10.70;4.30;;;;;;;2.92;69.38;102568.11;1920193;74;21047;-52
2022/12/30 01:30:03;;;;;;;8.98;4.35;;;;;;;2.91;69.42;102565.04;1923204;74;21012;-54
2022/12/30 01:32:35;;;;;;;13.32;4.35;;;;;;;2.90;69.42;102570.67;1894555;74;21584;-58
2022/12/30 01:35:03;;;;;;;13.15;4.30;;;;;;;2.90;69.49;102563.30;1892714;75;21125;-58
2022/12/30 01:37:33;;;;;;;10.18;4.08;;;;;;;2.90;69.51;102569.81;1889674;76;21549;-58
2022/12/30 01:40:02;;;;;;;12.45;4.83;;;;;;;2.92;69.54;102570.72;1886815;76;21085;-57
2022/12/30 01:42:34;;;;;;;12.40;4.05;;;;;;;2.93;69.61;102561.18;1886683;76;21480;-51
2022/12/30 01:45:23;;;;;;;15.65;4.83;;;;;;;2.96;69.72;102564.73;1886144;76;21598;-51
2022/12/30 01:47:54;;;;;;;16.20;4.87;;;;;;;2.97;69.60;102556.09;1885690;74;21115;-55
2022/12/30 01:50:41;;;;;;;14.20;5.33;;;;;;;2.93;69.51;102562.05;1911157;74;21129;-54
2022/12/30 01:53:16;;;;;;;8.65;4.22;;;;;;;2.85;69.45;102559.28;1927610;72;21040;-52
2022/12/30 01:55:47;;;;;;;14.38;5.15;;;;;;;2.78;69.43;102555.22;1927182;74;21040;-48
2022/12/30 01:58:21;;;;;;;12.78;4.60;;;;;;;2.73;69.52;102551.63;1927331;74;21108;-55
2022/12/30 02:00:50;;;;;;;10.93;3.80;;;;;;;2.70;69.49;102562.42;1927276;74;21040;-57
2022/12/30 02:03:19;;;;;;;7.95;2.77;;;;;;;2.67;69.47;102566.27;1927593;74;21076;-56
2022/12/30 02:05:49;;;;;;;11.80;3.67;;;;;;;2.65;69.45;102569.23;1927761;74;21051;-56
2022/12/30 02:08:20;;;;;;;8.35;3.80;;;;;;;2.67;69.57;102571.88;1927768;74;21047;-56
2022/12/30 02:10:51;;;;;;;10.80;4.53;;;;;;;2.70;69.67;102574.56;1927524;74;21645;-56
2022/12/30 02:13:21;;;;;;;10.40;4.70;;;;;;;2.76;69.66;102573.81;1927246;74;21122;-57
2022/12/30 02:16:08;;;;;;;6.62;2.60;;;;;;;2.76;69.94;102572.08;1927798;74;21047;-55
2022/12/30 02:18:51;;;;;;;5.05;2.75;;;;;;;2.81;70.04;102560.50;1927704;74;21558;-57
2022/12/30 02:21:35;;;;;;;13.08;3.00;;;;;;;2.86;69.91;102562.36;1911239;74;21547;-56
2022/12/30 02:24:21;;;;;;;16.20;4.00;;;;;;;2.93;69.79;102562.05;1927887;74;21048;-56
2022/12/30 02:27:08;;;;;;;13.98;3.47;;;;;;;2.97;69.75;102561.30;1917579;73;21536;-56
2022/12/30 02:29:56;;;;;;;6.35;2.80;;;;;;;2.95;70.05;102568.19;1887498;74;21118;-56
2022/12/30 02:33:03;;;;;;;9.73;3.67;;;;;;;2.95;70.23;102568.59;1883235;76;21585;-56
2022/12/30 02:35:41;;;;;;;7.53;3.30;;;;;;;2.90;70.26;102577.61;1887213;74;21499;-57
2022/12/30 02:38:15;;;;;;;10.75;4.53;;;;;;;2.84;70.27;102576.16;1890138;76;21043;-56
2022/12/30 02:46:13;;;;;;;5.55;3.00;;;;;;;2.67;70.06;102571.48;1891306;74;21506;-57
2022/12/30 02:48:44;;;;;;;8.10;2.80;;;;;;;2.64;70.03;102576.59;1868880;74;21446;-56
2022/12/30 02:54:02;;;;;;;16.60;3.35;;;;;;;2.59;70.16;102579.50;1890795;76;21063;-58
2022/12/30 02:56:30;;;;;;;9.58;2.98;;;;;;;2.59;70.48;102579.94;1890723;76;21124;-59
2022/12/30 03:04:55;;;;;;;;;;;;;;;2.75;70.79;102590.25;1928907;73;21078;-58
2022/12/30 03:07:29;;;;;;;6.17;2.40;;;;;;;2.81;70.64;102590.42;1865359;75;20380;-57
2022/12/30 03:13:12;;;;;;;10.53;3.98;;;;;;;2.92;70.34;102588.93;1884879;76;21529;-57
2022/12/30 03:15:46;;;;;;;13.65;3.22;;;;;;;2.97;70.33;102596.83;1866686;75;21107;-56
2022/12/30 03:18:16;;;;;;;6.92;2.20;;;;;;;3.02;70.29;102592.61;1860400;76;21093;-57
2022/12/30 03:20:47;;;;;;;3.50;1.67;;;;;;;3.06;70.20;102591.42;1865447;76;21030;-57
2022/12/30 03:28:53;;;;;;;8.08;2.65;;;;;;;3.03;70.35;102592.64;1890251;74;21107;-58
2022/12/30 03:31:22;;;;;;;6.25;2.42;;;;;;;3.03;70.30;102593.95;1896846;74;21035;-57
2022/12/30 03:33:51;;;;;;;11.63;3.85;;;;;;;3.02;70.43;102601.28;1898681;75;21442;-56
2022/12/30 03:36:22;;;;;;;12.65;4.50;;;;;;;2.99;70.48;102596.03;1923914;74;21134;-57
2022/12/30 03:39:13;;;;;;;11.05;4.80;;;;;;;2.99;70.43;102605.14;1897870;74;21118;-57
2022/12/30 03:41:45;;;;;;;13.58;5.60;;;;;;;2.97;70.42;102599.42;1898234;75;21036;-57
2022/12/30 03:44:14;;;;;;;10.28;5.20;;;;;;;2.95;70.62;102608.92;1898250;75;21036;-57
2022/12/30 03:46:44;;;;;;;11.15;4.83;;;;;;;2.98;70.71;102607.27;1899876;75;21142;-55
2022/12/30 03:49:14;;;;;;;10.48;4.70;;;;;;;3.00;70.72;102605.58;1899724;75;21071;-56
2022/12/30 03:51:43;;;;;;;12.10;6.08;;;;;;;2.98;70.84;102607.27;1865825;77;21568;-56
2022/12/30 03:54:12;;;;;;;15.08;5.25;;;;;;;2.97;70.79;102609.44;1891394;76;21175;-56
2022/12/30 03:56:40;;;;;;;12.40;5.25;;;;;;;2.93;70.99;102610.62;1892700;75;21035;-56
2022/12/30 03:59:09;;;;;;;14.25;4.92;;;;;;;2.91;71.03;102610.58;1835026;78;21150;-56
2022/12/30 04:01:38;;;;;;;15.32;4.87;;;;;;;2.88;71.01;102611.83;1867867;75;21051;-55
2022/12/30 04:04:07;;;;;;;14.93;5.15;;;;;;;2.89;71.03;102609.23;1834822;78;21577;-56
2022/12/30 04:06:35;;;;;;;12.47;5.80;;;;;;;2.91;71.16;102611.88;1885597;75;21027;-57
2022/12/30 04:09:04;;;;;;;16.55;4.67;;;;;;;2.91;71.18;102617.08;1865648;77;21067;-57
2022/12/30 04:11:33;;;;;;;10.58;4.60;;;;;;;2.93;71.10;102619.30;1893645;76;21119;-56
2022/12/30 04:14:02;;;;;;;10.98;4.78;;;;;;;2.92;71.17;102624.06;1899932;75;21043;-56
2022/12/30 04:16:31;;;;;;;13.38;5.10;;;;;;;2.93;71.27;102624.50;1897511;75;21044;-56
2022/12/30 04:19:00;;;;;;;16.07;5.62;;;;;;;2.93;71.17;102621.89;1865812;77;21483;-56
2022/12/30 04:21:29;;;;;;;11.68;4.45;;;;;;;2.91;71.22;102618.39;1893578;75;21018;-57
2022/12/30 04:23:57;;;;;;;14.25;4.50;;;;;;;2.90;71.44;102620.55;1899763;75;21106;-56
2022/12/30 04:26:26;;;;;;;8.38;4.75;;;;;;;2.92;71.58;102617.55;1897444;75;21043;-54
2022/12/30 04:28:55;;;;;;;10.38;4.65;;;;;;;2.99;71.59;102620.75;1859658;77;21074;-54
2022/12/30 04:31:24;;;;;;;8.43;4.33;;;;;;;3.08;71.52;102617.05;1890420;76;21005;-53
2022/12/30 04:33:53;;;;;;;14.10;4.58;;;;;;;3.15;71.60;102621.95;1890563;76;21476;-54
2022/12/30 04:36:22;;;;;;;11.22;5.03;;;;;;;3.18;71.68;102626.37;1854700;77;21043;-54
2022/12/30 04:38:51;;;;;;;12.13;5.30;;;;;;;3.16;71.61;102626.77;1856930;77;21046;-50
2022/12/30 04:41:20;;;;;;;12.75;4.83;;;;;;;3.16;71.62;102623.73;1900132;75;21044;-52
2022/12/30 04:43:49;;;;;;;9.50;4.53;;;;;;;3.18;71.60;102622.47;1900138;75;21120;-53
2022/12/30 04:46:18;;;;;;;9.93;5.37;;;;;;;3.20;71.49;102630.75;1900012;75;21604;-53
2022/12/30 04:48:46;;;;;;;15.35;4.67;;;;;;;3.22;71.44;102628.19;1899482;75;21009;-51
2022/12/30 04:51:15;;;;;;;13.50;4.03;;;;;;;3.24;71.31;102629.09;1900101;75;21547;-52
2022/12/30 04:53:44;;;;;;;11.50;5.30;;;;;;;3.20;71.37;102619.47;1900122;75;21053;-51
2022/12/30 04:56:13;;;;;;;18.00;5.37;;;;;;;3.19;71.50;102625.50;1900105;75;21126;-53
2022/12/30 04:58:41;;;;;;;14.47;5.58;;;;;;;3.22;71.57;102626.88;1886071;75;21029;-53
2022/12/30 05:01:10;;;;;;;28.02;6.15;;;;;;;3.27;71.56;102630.47;1866317;76;21061;-53
2022/12/30 05:03:38;;;;;;;13.75;5.37;;;;;;;3.29;71.64;102631.38;1866365;77;21064;-53
2022/12/30 05:06:07;;;;;;;20.37;6.55;;;;;;;3.32;71.55;102624.05;1866271;77;21093;-52
2022/12/30 05:08:36;;;;;;;22.45;7.20;;;;;;;3.32;71.58;102626.25;1872554;75;21128;-52
2022/12/30 05:11:05;;;;;;;17.80;6.15;;;;;;;3.26;71.73;102625.70;1900050;75;21041;-54
2022/12/30 05:13:33;;;;;;;22.25;5.92;;;;;;;3.29;71.70;102628.34;1900278;75;21049;-53
2022/12/30 05:16:02;;;;;;;26.90;6.80;;;;;;;3.32;71.67;102627.55;1900121;75;21017;-53
2022/12/30 05:18:31;;;;;;;17.70;5.80;;;;;;;3.38;71.68;102625.50;1900188;75;21045;-51
2022/12/30 05:20:59;;;;;;;24.82;7.65;;;;;;;3.45;71.67;102630.86;1899221;75;21049;-53
2022/12/30 05:26:16;;;;;;;21.30;5.92;;;;;;;3.63;71.68;102621.65;1900076;75;21025;-56
2022/12/30 05:28:47;;;;;;;20.90;5.58;;;;;;;3.85;71.67;102626.45;1900093;75;21064;-57
2022/12/30 05:31:17;;;;;;;25.77;8.68;;;;;;;4.10;71.52;102630.80;1899215;75;21546;-57
2022/12/30 05:33:46;;;;;;;31.40;6.83;;;;;;;4.38;71.34;102629.55;1900216;75;21116;-57
2022/12/30 05:36:15;;;;;;;17.20;6.40;;;;;;;4.60;71.01;102633.83;1899975;75;21123;-57
2022/12/30 05:38:45;;;;;;;47.30;8.85;;;;;;;4.61;70.69;102627.73;1900119;75;21128;-56
2022/12/30 05:41:14;;;;;;;35.92;8.33;;;;;;;4.74;70.59;102632.31;1897586;75;21390;-56
2022/12/30 05:43:46;;;;;;;41.90;8.55;;;;;;;5.19;70.25;102627.73;1900218;75;21041;-56
2022/12/30 05:46:16;;;;;;;36.08;8.48;;;;;;;5.80;69.68;102619.33;1888241;75;21182;-57
2022/12/30 05:48:45;;;;;;;35.15;6.80;;;;;;;6.53;68.50;102618.75;1891176;76;21372;-56
2022/12/30 05:51:14;;;;;;;34.50;7.83;;;;;;;7.16;67.38;102624.39;1888909;76;21124;-57
2022/12/30 05:53:43;;;;;;;27.37;7.47;;;;;;;7.76;66.59;102621.12;1891048;76;21050;-56
2022/12/30 05:56:16;;;;;;;17.60;5.28;;;;;;;8.39;66.14;102619.49;1891000;76;21541;-56
2022/12/30 05:58:42;;;;;;;37.03;6.58;;;;;;;8.91;65.52;102616.39;1890749;76;21124;-54
2022/12/30 06:01:10;;;;;;;25.23;7.10;;;;;;;9.40;65.03;102610.53;1888618;76;21043;-58
2022/12/30 06:03:39;;;;;;;15.70;5.58;;;;;;;10.09;64.38;102613.24;1890968;76;21003;-56
2022/12/30 06:06:10;;;;;;;28.17;5.97;;;;;;;10.54;63.80;102611.59;1891035;76;21140;-53
2022/12/30 06:08:39;;;;;;;17.37;5.80;;;;;;;11.18;63.14;102613.56;1888399;76;21124;-52
2022/12/30 06:11:08;;;;;;;14.93;5.22;;;;;;;11.88;62.19;102605.63;1859234;77;21135;-49
2022/12/30 06:13:37;;;;;;;23.87;6.12;;;;;;;12.45;61.45;102601.22;1858947;77;21211;-53
2022/12/30 06:16:06;;;;;;;14.33;4.67;;;;;;;12.86;60.63;102607.55;1858994;77;21199;-49
2022/12/30 06:18:35;;;;;;;15.50;5.90;;;;;;;13.27;59.93;102605.86;1859109;77;21537;-54
2022/12/30 06:21:04;;;;;;;18.77;5.50;;;;;;;13.82;59.03;102606.48;1861026;76;21140;-56
2022/12/30 06:23:32;;;;;;;12.55;5.42;;;;;;;14.29;58.42;102599.16;1858987;77;21029;-54
2022/12/30 06:26:01;;;;;;;11.63;5.40;;;;;;;14.72;57.34;102606.05;1858993;77;21454;-53
2022/12/30 06:28:31;;;;;;;14.83;4.92;;;;;;;15.20;56.40;102607.39;1859069;77;21164;-56
2022/12/30 06:31:00;;;;;;;11.18;5.22;;;;;;;15.59;55.70;102604.00;1861058;76;21583;-56
2022/12/30 06:33:28;;;;;;;11.53;4.50;;;;;;;16.06;54.74;102591.48;1859079;77;21038;-56
2022/12/30 06:35:57;;;;;;;19.67;4.70;;;;;;;16.46;53.82;102595.48;1859113;77;21093;-56
2022/12/30 06:38:25;;;;;;;11.10;4.60;;;;;;;16.86;53.42;102600.77;1858999;77;21074;-56
2022/12/30 06:40:54;;;;;;;11.40;4.40;;;;;;;17.32;52.48;102600.41;1860978;76;21034;-58
2022/12/30 06:43:23;;;;;;;16.30;4.20;;;;;;;17.86;51.91;102598.80;1858958;77;21050;-58
2022/12/30 06:45:52;;;;;;;13.40;4.47;;;;;;;18.25;50.80;102598.09;1860665;76;21156;-58
2022/12/30 06:48:21;;;;;;;2.80;1.10;;;;;;;18.26;50.76;102595.81;1862565;77;21019;-58
2022/12/30 06:50:50;;;;;;;2.27;0.80;;;;;;;18.02;49.55;102590.59;1864852;76;21480;-56
2022/12/30 06:53:18;;;;;;;5.05;0.95;;;;;;;18.00;47.77;102591.56;1894723;76;21006;-58
2022/12/30 06:55:47;;;;;;;2.52;0.80;;;;;;;17.78;46.58;102592.86;1894876;76;21183;-56
2022/12/30 06:58:15;;;;;;;1.75;0.80;;;;;;;17.61;45.57;102582.41;1894912;76;21100;-56
2022/12/30 07:00:44;;;;;;;3.83;0.98;;;;;;;17.47;45.41;102579.45;1894874;76;21516;-57
2022/12/30 07:03:13;;;;;;;2.17;0.50;;;;;;;17.07;45.57;102584.94;1891943;76;21035;-57
2022/12/30 07:05:42;;;;;;;1.45;0.65;;;;;;;16.96;45.71;102587.52;1894561;76;21054;-56
2022/12/30 07:08:11;;;;;;;2.08;0.78;;;;;;;16.06;47.22;102595.47;1894596;76;21043;-56
2022/12/30 07:10:39;;;;;;;2.25;0.75;;;;;;;16.27;46.20;102595.24;1862764;77;21046;-55
2022/12/30 07:13:08;;;;;;;1.72;0.60;;;;;;;16.67;44.87;102595.18;1862697;77;21086;-56
2022/12/30 07:15:37;;;;;;;2.77;0.85;;;;;;;17.10;44.13;102578.19;1862842;77;21147;-56
2022/12/30 07:18:06;;;;;;;4.37;0.95;;;;;;;17.62;43.59;102581.50;1862932;77;21469;-51
2022/12/30 07:20:35;;;;;;;2.05;0.60;;;;;;;17.60;43.66;102592.68;1887730;76;21030;-51
2022/12/30 07:23:03;;;;;;;2.02;0.75;;;;;;;17.82;42.43;102580.70;1894851;76;21038;-49
2022/12/30 07:25:32;;;;;;;1.40;0.80;;;;;;;18.27;42.34;102579.75;1894792;76;21038;-49
2022/12/30 07:28:02;;;;;;;1.90;0.85;;;;;;;18.67;41.52;102590.52;1894841;76;21034;-55
2022/12/30 07:30:33;;;;;;;2.60;0.80;;;;;;;18.15;41.25;102581.63;1875710;76;21119;-57
2022/12/30 07:33:03;;;;;;;5.12;0.98;;;;;;;17.89;41.76;102586.66;1861895;76;21156;-58
2022/12/30 07:35:32;;;;;;;2.37;0.90;;;;;;;18.29;41.71;102579.69;1861626;76;21053;-57
2022/12/30 07:38:00;;;;;;;1.75;0.72;;;;;;;17.62;41.59;102584.63;1862705;77;21050;-57
2022/12/30 07:40:29;;;;;;;3.00;0.98;;;;;;;17.38;41.33;102579.80;1876164;76;21039;-56
2022/12/30 07:42:58;;;;;;;4.10;0.88;;;;;;;16.99;41.93;102583.90;1894797;76;21485;-57
2022/12/30 07:45:27;;;;;;;1.77;0.93;;;;;;;16.05;43.63;102590.23;1894704;75;21098;-58
2022/12/30 07:48:00;;;;;;;3.08;0.75;;;;;;;15.09;45.20;102589.12;1894953;76;21042;-55
2022/12/30 07:50:28;;;;;;;1.75;0.80;;;;;;;14.26;46.72;102585.54;1894279;76;21104;-58
2022/12/30 07:52:57;;;;;;;2.45;0.65;;;;;;;13.95;47.83;102590.72;1894786;76;21133;-53
2022/12/30 07:55:26;;;;;;;2.85;0.80;;;;;;;14.48;47.28;102579.70;1894941;76;21120;-54
2022/12/30 07:57:55;;;;;;;1.47;0.68;;;;;;;14.40;47.37;102580.34;1894827;76;21034;-55
2022/12/30 08:00:24;;;;;;;10.00;2.75;;;;;;;14.91;47.10;102579.89;1894151;76;21023;-55
2022/12/30 08:02:52;;;;;;;4.10;0.95;;;;;;;16.54;45.02;102580.15;1862792;76;21090;-58
2022/12/30 08:05:21;;;;;;;4.65;0.85;;;;;;;16.86;43.11;102579.48;1862671;77;21591;-57
2022/12/30 08:07:54;;;;;;;1.05;0.57;;;;;;;17.15;42.42;102573.53;1888111;76;21046;-56
2022/12/30 08:10:23;;;;;;;2.33;0.88;;;;;;;16.47;43.21;102574.62;1894915;76;21552;-58
2022/12/30 08:12:51;;;;;;;1.50;0.72;;;;;;;16.93;43.03;102581.00;1894745;76;21042;-56
2022/12/30 08:15:20;;;;;;;4.70;0.60;;;;;;;17.66;41.43;102575.11;1894789;76;21018;-57
2022/12/30 08:17:49;;;;;;;1.25;0.60;;;;;;;17.86;40.82;102562.83;1894821;76;21050;-56
2022/12/30 08:20:18;;;;;;;1.27;0.40;;;;;;;16.59;41.92;102591.94;1894786;76;21112;-57
2022/12/30 08:22:46;;;;;;;4.53;0.70;;;;;;;15.25;44.13;102578.91;1894837;76;21038;-57
2022/12/30 08:25:15;;;;;;;5.40;0.60;;;;;;;14.34;45.91;102581.36;1894719;76;21039;-57
2022/12/30 08:27:44;;;;;;;3.17;0.80;;;;;;;13.87;47.18;102567.07;1894869;76;21503;-57
2022/12/30 08:30:13;;;;;;;2.25;0.60;;;;;;;13.93;47.63;102569.16;1894843;76;21101;-57
2022/12/30 08:32:42;;;;;;;1.85;0.60;;;;;;;13.88;47.58;102561.31;1894883;76;21018;-57
2022/12/30 08:35:11;;;;;;;2.47;0.70;;;;;;;13.65;48.01;102568.48;1894926;76;21042;-58
2022/12/30 08:37:41;;;;;;;2.25;0.60;;;;;;;13.25;48.78;102573.28;1894641;76;21148;-59
2022/12/30 08:40:12;;;;;;;2.27;0.88;;;;;;;12.83;49.83;102560.88;1894791;76;21109;-58
2022/12/30 08:42:40;;;;;;;3.02;0.62;;;;;;;12.79;50.47;102568.45;1894818;76;21046;-58
2022/12/30 08:45:10;;;;;;;2.37;0.90;;;;;;;13.43;49.91;102557.50;1894801;76;21018;-58
2022/12/30 08:47:39;;;;;;;3.83;0.90;;;;;;;14.60;47.39;102551.55;1892703;76;21152;-58
2022/12/30 08:50:07;;;;;;;1.72;0.65;;;;;;;16.06;45.10;102548.97;1890995;76;21105;-59
2022/12/30 08:52:37;;;;;;;1.70;0.80;;;;;;;17.41;42.63;102532.63;1891217;76;21015;-58
2022/12/30 08:55:06;;;;;;;1.47;0.60;;;;;;;18.07;40.55;102529.08;1891096;76;21441;-57
2022/12/30 08:57:40;;;;;;;0.88;0.60;;;;;;;18.94;40.07;102543.54;1891053;76;21042;-57
2022/12/30 09:00:10;;;;;;;2.87;0.80;;;;;;;19.10;38.81;102529.88;1891189;76;21061;-58
2022/12/30 09:02:38;;;;;;;1.57;0.57;;;;;;;17.99;39.92;102542.73;1891227;76;21093;-58
2022/12/30 09:05:07;;;;;;;5.28;0.75;;;;;;;16.99;41.21;102546.64;1890985;76;21116;-58
2022/12/30 09:07:36;;;;;;;2.83;1.07;;;;;;;17.27;41.14;102535.81;1891103;76;21112;-57
2022/12/30 09:10:10;;;;;;;2.45;0.70;;;;;;;18.19;39.98;102535.70;1891059;76;21482;-57
2022/12/30 09:12:36;;;;;;;2.27;0.85;;;;;;;18.57;39.30;102533.16;1890898;76;21047;-56
2022/12/30 09:15:06;;;;;;;1.72;0.70;;;;;;;17.75;39.92;102529.45;1891043;76;21112;-56
2022/12/30 09:17:34;;;;;;;1.17;0.62;;;;;;;16.55;42.10;102551.75;1891166;76;21129;-56
2022/12/30 09:20:03;;;;;;;4.03;0.50;;;;;;;15.16;44.21;102553.97;1891047;76;21136;-56
2022/12/30 09:22:32;;;;;;;0.82;0.70;;;;;;;14.09;46.49;102557.26;1891161;76;21042;-56
2022/12/30 09:25:03;;;;;;;1.77;0.70;;;;;;;13.48;48.09;102552.53;1891106;76;21040;-56
2022/12/30 09:27:30;;;;;;;2.55;1.00;;;;;;;13.17;49.14;102536.84;1891063;76;21042;-57
2022/12/30 09:29:59;;;;;;;3.15;0.82;;;;;;;13.06;50.12;102548.53;1891017;76;21074;-56
2022/12/30 09:32:28;;;;;;;6.85;0.90;;;;;;;15.11;47.17;102546.62;1890965;76;21937;-56
2022/12/30 09:34:56;;;;;;;4.90;1.12;;;;;;;17.15;43.59;102533.17;1891070;76;21034;-56
2022/12/30 09:37:25;;;;;;;1.75;0.68;;;;;;;16.33;43.79;102535.69;1891067;76;21106;-57
2022/12/30 09:39:54;;;;;;;1.95;0.60;;;;;;;15.87;44.67;102531.92;1891073;76;21046;-56
2022/12/30 09:45:32;;;;;;;3.62;0.95;;;;;;;18.33;40.33;102525.29;1891022;76;21603;-57
2022/12/30 09:48:03;;;;;;;1.02;0.70;;;;;;;19.01;38.82;102532.50;1890511;76;21082;-57
2022/12/30 09:50:44;;;;;;;1.57;0.85;;;;;;;17.02;41.33;102535.01;1894789;76;21548;-54
2022/12/30 09:53:21;;;;;;;1.27;0.82;;;;;;;15.44;44.18;102525.70;1893089;76;21042;-54
2022/12/30 09:55:56;;;;;;;3.27;1.35;;;;;;;14.97;45.78;102529.30;1872795;76;21042;-54
2022/12/30 09:58:34;;;;;;;2.20;0.80;;;;;;;14.56;46.55;102519.38;1894794;76;21484;-54
2022/12/30 10:01:30;;;;;;;5.70;1.07;;;;;;;15.30;45.88;102504.02;1894713;76;21019;-55
2022/12/30 10:04:01;;;;;;;2.33;1.30;;;;;;;17.05;42.24;102498.50;1894878;76;21587;-56
2022/12/30 10:06:35;;;;;;;1.35;0.90;;;;;;;17.11;42.08;102505.38;1894736;76;21018;-56
2022/12/30 10:09:36;;;;;;;4.33;1.00;;;;;;;18.86;39.69;102505.20;1894798;76;21489;-56
2022/12/30 10:12:40;;;;;;;2.15;0.50;;;;;;;19.41;37.55;102499.06;1893503;76;21058;-54
2022/12/30 10:15:17;;;;;;;3.45;0.80;;;;;;;18.91;37.18;102513.86;1893923;75;21133;-54
2022/12/30 10:18:05;;;;;;;4.90;0.80;;;;;;;18.61;38.11;102508.06;1893948;76;21050;-53
2022/12/30 10:20:43;;;;;;;1.87;0.55;;;;;;;19.41;37.21;102496.39;1894761;76;21132;-54
2022/12/30 10:23:26;;;;;;;2.45;0.70;;;;;;;20.44;36.00;102493.41;1893978;76;21019;-53
2022/12/30 10:26:13;;;;;;;3.15;0.85;;;;;;;20.77;35.57;102488.56;1891828;76;21157;-55
2022/12/30 10:28:48;;;;;;;2.02;1.02;;;;;;;19.86;35.90;102493.73;1894859;76;21015;-55
2022/12/30 10:31:19;;;;;;;5.95;1.50;;;;;;;19.34;36.57;102494.95;1873380;75;21038;-55
2022/12/30 10:33:51;;;;;;;3.58;0.90;;;;;;;19.22;37.19;102469.72;1890895;76;21026;-54
2022/12/30 10:36:39;;;;;;;3.55;0.95;;;;;;;18.88;37.00;102482.83;1891129;76;21132;-56
2022/12/30 10:39:14;;;;;;;1.45;0.75;;;;;;;19.37;36.50;102486.80;1853490;77;21051;-52
2022/12/30 10:42:07;;;;;;;2.45;0.80;;;;;;;19.40;35.86;102508.00;1853387;77;21496;-50
2022/12/30 10:44:48;;;;;;;3.03;1.27;;;;;;;18.74;36.74;102487.92;1853690;77;21486;-53
2022/12/30 10:47:41;;;;;;;3.50;1.10;;;;;;;19.47;36.37;102480.05;1884960;76;21272;-53
2022/12/30 10:50:39;;;;;;;2.22;0.70;;;;;;;20.13;35.59;102479.44;1889899;76;21579;-49
2022/12/30 10:53:10;;;;;;;2.80;0.90;;;;;;;20.09;34.76;102475.68;1894749;76;21034;-47
2022/12/30 10:55:42;;;;;;;3.62;0.90;;;;;;;20.01;34.78;102477.38;1894150;76;21143;-53
2022/12/30 10:58:22;;;;;;;1.87;0.60;;;;;;;19.63;35.16;102478.84;1894583;76;21613;-52
2022/12/30 11:00:51;;;;;;;1.37;0.50;;;;;;;19.49;35.44;102475.49;1881270;76;21070;-54
2022/12/30 11:03:28;;;;;;;1.17;0.90;;;;;;;20.06;35.08;102470.85;1895587;76;21061;-51
2022/12/30 11:06:06;;;;;;;2.17;0.75;;;;;;;20.00;35.31;102473.85;1895453;76;21622;-52
2022/12/30 11:08:30;;;;;;;4.47;0.98;;;;;;;20.01;35.09;102471.59;1890099;76;21159;-54
2022/12/30 11:11:07;;;;;;;5.72;1.07;;;;;;;20.17;35.11;102464.09;1888344;76;21552;-51
2022/12/30 11:16:35;;;;;;;2.42;0.62;;;;;;;19.13;36.30;102471.49;1885164;76;21024;-52
2022/12/30 11:19:05;;;;;;;3.75;1.00;;;;;;;19.08;35.97;102481.03;1882909;76;21176;-46
2022/12/30 11:21:35;;;;;;;1.57;1.10;;;;;;;18.19;37.44;102473.05;1862703;77;21543;-50
2022/12/30 11:24:05;;;;;;;5.70;0.80;;;;;;;18.46;37.16;102470.95;1862746;77;21042;-52
2022/12/30 11:26:34;;;;;;;2.25;1.07;;;;;;;18.79;36.68;102475.69;1881096;76;21022;-55
2022/12/30 11:29:09;;;;;;;1.70;1.22;;;;;;;18.69;36.60;102463.25;1894953;76;21034;-55
2022/12/30 11:31:41;;;;;;;1.62;0.90;;;;;;;19.10;36.36;102463.14;1894830;76;21486;-53
2022/12/30 11:34:22;;;;;;;1.55;0.82;;;;;;;19.14;35.97;102472.72;1894844;76;21014;-54
2022/12/30 11:36:50;;;;;;;4.80;0.80;;;;;;;18.61;36.63;102472.94;1894196;76;21042;-55
2022/12/30 11:39:28;;;;;;;2.35;1.52;;;;;;;18.25;37.21;102466.11;1894695;76;21108;-51
2022/12/30 11:41:59;;;;;;;1.05;0.85;;;;;;;18.17;37.45;102480.23;1894413;76;21180;-51
2022/12/30 11:44:33;;;;;;;2.60;0.90;;;;;;;17.98;37.85;102482.35;1894920;76;21030;-51
2022/12/30 11:47:04;;;;;;;3.27;1.10;;;;;;;17.63;38.34;102482.47;1894085;76;21038;-51
2022/12/30 11:49:36;;;;;;;2.00;0.93;;;;;;;17.32;38.78;102477.93;1893352;76;21545;-51
2022/12/30 11:52:10;;;;;;;1.35;0.60;;;;;;;16.90;39.51;102487.98;1894771;76;21489;-53
2022/12/30 11:54:50;;;;;;;4.15;1.10;;;;;;;16.52;40.18;102479.59;1894722;76;21093;-52
2022/12/30 11:57:21;;;;;;;3.83;0.75;;;;;;;16.45;40.53;102489.17;1894919;76;21043;-53
2022/12/30 11:59:55;;;;;;;2.58;1.07;;;;;;;15.96;41.24;102483.80;1893094;76;21164;-54
2022/12/30 12:02:35;;;;;;;4.72;0.80;;;;;;;15.55;42.10;102493.51;1894893;76;21026;-55
2022/12/30 12:05:15;;;;;;;1.62;0.93;;;;;;;15.39;42.60;102499.75;1894802;76;21061;-52
2022/12/30 12:07:47;;;;;;;2.95;0.80;;;;;;;14.98;43.31;102495.72;1876017;76;21066;-49
2022/12/30 12:10:27;;;;;;;1.80;0.85;;;;;;;14.53;44.25;102495.60;1894932;76;21030;-53
2022/12/30 12:13:01;;;;;;;3.62;0.85;;;;;;;14.36;44.73;102493.88;1875769;76;21489;-54
2022/12/30 12:15:48;;;;;;;1.75;0.65;;;;;;;14.29;45.06;102507.30;1894803;76;21073;-53
2022/12/30 12:18:42;;;;;;;3.50;0.88;;;;;;;14.08;45.30;102506.53;1877195;75;21207;-51
2022/12/30 12:21:28;;;;;;;7.50;1.10;;;;;;;14.09;45.41;102505.61;1895076;76;21090;-54
2022/12/30 12:24:13;;;;;;;7.95;0.90;;;;;;;14.05;45.54;102505.27;1894785;76;21497;-54
2022/12/30 12:26:53;;;;;;;0.70;0.70;;;;;;;13.73;46.22;102501.66;1894884;76;21026;-55
2022/12/30 12:29:22;;;;;;;3.52;0.95;;;;;;;12.99;47.80;102516.97;1894847;76;21046;-53
2022/12/30 12:32:13;;;;;;;1.20;0.70;;;;;;;12.22;49.60;102510.05;1894781;76;21046;-54
2022/12/30 12:34:47;;;;;;;2.47;0.72;;;;;;;11.66;51.25;102505.24;1894833;76;21042;-49
2022/12/30 12:37:45;;;;;;;1.52;0.65;;;;;;;11.25;52.88;102500.09;1883418;75;21038;-55
2022/12/30 12:40:33;;;;;;;4.33;0.88;;;;;;;10.98;53.87;102499.58;1861336;77;21570;-47
2022/12/30 12:43:36;;;;;;;1.32;0.70;;;;;;;10.86;54.57;102494.45;1897593;75;21030;-49
2022/12/30 12:46:08;;;;;;;1.00;0.57;;;;;;;10.73;54.92;102488.00;1897726;75;21104;-47
2022/12/30 12:48:40;;;;;;;0.82;0.72;;;;;;;10.62;55.51;102485.94;1896713;75;21528;-46
2022/12/30 12:51:37;;;;;;;3.27;1.20;;;;;;;10.51;56.10;102477.29;1893621;75;21082;-48
2022/12/30 12:54:30;;;;;;;1.27;0.60;;;;;;;10.43;56.42;102488.77;1893140;76;21509;-48